RJNY  Shizuhama Airport

Add Bookmark

Japan

Status
Operational
Latitude Longitude
34° 48' 46" N 138° 17' 52" E
34.812801 138.298004
Local (DST + 9) UTC (GMT + 9)
Nov 28, 2014 09:01 Nov 28, 2014 12:01
Sunrise-Sunset Local UTC
Begin Civil Twilight 06:04 21:04
Sunrise 06:31 21:31
Sunset 04:37 07:37
End Civil Twilight 05:05 08:05

Current Weather

METAR Observed VFR
RJNY 281023Z 35002KT 9999 FEW015 SCT050 14/13 Q1022 Fri, Nov 28, 2014 @ 10:23 UTC
(1 Hour, 38 Minutes ago)
Visual Flight Rules
Wind Visibility Clouds Conditions
350° at 2 knots (4 kph) 10 km or more
  • Few at 1,500' AGL
  • Scattered at 5,000' AGL
  • No significant weather
Temperatures Readings Precipitation
Current Temp 14°C (57°F)
Dewpoint 13°C (55°F)
Humidity 94%
Altimeter 30.18"Hg
Sea Level Pressure 1022mb
Field Elevation 32.81'
None Recorded

Additional weather within a 92.6km radius of RJNY

Map ICAO Location
rjns 10.2km W (259°)
RJAT 76.7km N (043°)

24 Hour Weather History

Loading
-

24 Hour Weather Graphs

Loading
-

CheckWX.com is intended as a tool to help pilots better visualize weather data. It is not intended as a substitute for an official weather briefing obtained from a Flight Service Station. CheckWX.com does not meet the FAA requirements for an official pre-flight weather briefing. Therefore, it's important that pilots still call and obtain an official FSS pre-flight weather briefing.